Terminal Aerodrome Forecast
Issued by NWS

Home | Current Version | Previous Version | Text Only | Print | Product List | Glossary On
Versions: 1 2 3 4 5 6 7 8 9 10 11 12 13 14 15 16 17 18 19 20 21 22 23 24 25 26 27
208
FTUS43 KEAX 270531
TAFMKC
TAF
KMKC 270531Z 2706/2806 18008KT P6SM VCTS FEW020 BKN045CB
     FM270700 17005KT P6SM SCT015 BKN050
      TEMPO 2707/2709 5SM BR BKN015
     FM270900 VRB03KT 4SM BR BKN015
     FM271300 18006KT P6SM FEW010 SCT030
     FM272000 21008KT P6SM VCTS BKN030CB=

USA.gov is the U.S. government's official web portal to all federal, state and local government web resources and services.